sensor_id;sensor_type;location;lat;lon;timestamp;P1;durP1;ratioP1;P2;durP2;ratioP2
76208;SDS011;64990;51.698;-0.292;2023-06-10T00:01:31;41.65;;;10.35;;
76208;SDS011;64990;51.698;-0.292;2023-06-10T00:03:59;36.60;;;10.00;;
76208;SDS011;64990;51.698;-0.292;2023-06-10T00:06:25;41.78;;;11.82;;
76208;SDS011;64990;51.698;-0.292;2023-06-10T00:08:51;23.42;;;11.07;;
76208;SDS011;64990;51.698;-0.292;2023-06-10T00:11:17;29.38;;;9.27;;
76208;SDS011;64990;51.698;-0.292;2023-06-10T00:13:43;39.60;;;10.50;;
76208;SDS011;64990;51.698;-0.292;2023-06-10T00:16:09;34.47;;;12.43;;
76208;SDS011;64990;51.698;-0.292;2023-06-10T00:18:35;34.35;;;10.65;;
76208;SDS011;64990;51.698;-0.292;2023-06-10T00:21:03;37.67;;;12.02;;
76208;SDS011;64990;51.698;-0.292;2023-06-10T00:23:30;41.58;;;12.55;;
76208;SDS011;64990;51.698;-0.292;2023-06-10T00:26:00;35.35;;;10.65;;
76208;SDS011;64990;51.698;-0.292;2023-06-10T00:28:26;32.55;;;11.20;;
76208;SDS011;64990;51.698;-0.292;2023-06-10T00:30:52;20.25;;;10.05;;
76208;SDS011;64990;51.698;-0.292;2023-06-10T00:33:18;31.67;;;13.73;;
76208;SDS011;64990;51.698;-0.292;2023-06-10T00:35:44;39.88;;;13.65;;
76208;SDS011;64990;51.698;-0.292;2023-06-10T00:38:10;25.90;;;10.52;;
76208;SDS011;64990;51.698;-0.292;2023-06-10T00:40:39;32.95;;;11.00;;
76208;SDS011;64990;51.698;-0.292;2023-06-10T00:43:08;60.60;;;17.42;;
76208;SDS011;64990;51.698;-0.292;2023-06-10T00:45:37;34.08;;;12.45;;
76208;SDS011;64990;51.698;-0.292;2023-06-10T00:48:03;28.88;;;9.85;;
76208;SDS011;64990;51.698;-0.292;2023-06-10T00:50:29;52.88;;;14.07;;
76208;SDS011;64990;51.698;-0.292;2023-06-10T00:52:56;44.05;;;12.02;;
76208;SDS011;64990;51.698;-0.292;2023-06-10T00:55:22;40.17;;;13.15;;
76208;SDS011;64990;51.698;-0.292;2023-06-10T00:57:49;49.95;;;17.45;;
76208;SDS011;64990;51.698;-0.292;2023-06-10T01:00:16;38.25;;;11.38;;
76208;SDS011;64990;51.698;-0.292;2023-06-10T01:02:42;41.78;;;13.25;;
76208;SDS011;64990;51.698;-0.292;2023-06-10T01:05:08;42.60;;;12.90;;
76208;SDS011;64990;51.698;-0.292;2023-06-10T01:07:40;36.10;;;13.27;;
76208;SDS011;64990;51.698;-0.292;2023-06-10T01:10:19;42.55;;;14.52;;
76208;SDS011;64990;51.698;-0.292;2023-06-10T01:15:17;57.63;;;13.57;;
76208;SDS011;64990;51.698;-0.292;2023-06-10T01:20:23;36.60;;;13.65;;
76208;SDS011;64990;51.698;-0.292;2023-06-10T01:22:49;52.67;;;13.95;;
76208;SDS011;64990;51.698;-0.292;2023-06-10T01:25:16;43.35;;;13.85;;
76208;SDS011;64990;51.698;-0.292;2023-06-10T01:27:43;32.20;;;12.77;;
76208;SDS011;64990;51.698;-0.292;2023-06-10T01:30:15;48.08;;;15.73;;
76208;SDS011;64990;51.698;-0.292;2023-06-10T01:32:48;42.30;;;11.98;;
76208;SDS011;64990;51.698;-0.292;2023-06-10T01:35:15;38.50;;;14.38;;
76208;SDS011;64990;51.698;-0.292;2023-06-10T01:37:46;28.45;;;12.38;;
76208;SDS011;64990;51.698;-0.292;2023-06-10T01:40:12;43.55;;;14.13;;
76208;SDS011;64990;51.698;-0.292;2023-06-10T01:42:38;44.22;;;15.77;;
76208;SDS011;64990;51.698;-0.292;2023-06-10T01:45:05;43.10;;;16.38;;
76208;SDS011;64990;51.698;-0.292;2023-06-10T01:47:31;40.97;;;14.13;;
76208;SDS011;64990;51.698;-0.292;2023-06-10T01:49:57;40.45;;;13.82;;
76208;SDS011;64990;51.698;-0.292;2023-06-10T01:52:23;52.90;;;14.07;;
76208;SDS011;64990;51.698;-0.292;2023-06-10T01:54:49;33.42;;;11.43;;
76208;SDS011;64990;51.698;-0.292;2023-06-10T01:57:15;52.22;;;15.73;;
76208;SDS011;64990;51.698;-0.292;2023-06-10T01:59:41;45.22;;;14.57;;
76208;SDS011;64990;51.698;-0.292;2023-06-10T02:02:09;54.75;;;13.60;;
76208;SDS011;64990;51.698;-0.292;2023-06-10T02:04:36;48.22;;;16.65;;
76208;SDS011;64990;51.698;-0.292;2023-06-10T02:07:02;43.33;;;13.43;;
76208;SDS011;64990;51.698;-0.292;2023-06-10T02:09:29;51.90;;;15.18;;
76208;SDS011;64990;51.698;-0.292;2023-06-10T02:11:56;49.55;;;13.48;;
76208;SDS011;64990;51.698;-0.292;2023-06-10T02:14:22;49.63;;;14.88;;
76208;SDS011;64990;51.698;-0.292;2023-06-10T02:16:48;35.38;;;12.45;;
76208;SDS011;64990;51.698;-0.292;2023-06-10T02:19:14;45.40;;;15.30;;
76208;SDS011;64990;51.698;-0.292;2023-06-10T02:21:39;30.75;;;11.15;;
76208;SDS011;64990;51.698;-0.292;2023-06-10T02:24:06;37.65;;;13.32;;
76208;SDS011;64990;51.698;-0.292;2023-06-10T02:26:32;36.00;;;12.52;;
76208;SDS011;64990;51.698;-0.292;2023-06-10T02:28:58;44.20;;;14.50;;
76208;SDS011;64990;51.698;-0.292;2023-06-10T02:31:24;42.65;;;12.95;;
76208;SDS011;64990;51.698;-0.292;2023-06-10T02:33:50;59.80;;;15.55;;
76208;SDS011;64990;51.698;-0.292;2023-06-10T02:36:16;38.13;;;11.60;;
76208;SDS011;64990;51.698;-0.292;2023-06-10T02:38:42;37.75;;;15.45;;
76208;SDS011;64990;51.698;-0.292;2023-06-10T02:41:08;39.72;;;12.30;;
76208;SDS011;64990;51.698;-0.292;2023-06-10T02:43:35;35.33;;;12.50;;
76208;SDS011;64990;51.698;-0.292;2023-06-10T02:46:01;63.55;;;15.32;;
76208;SDS011;64990;51.698;-0.292;2023-06-10T02:48:27;84.60;;;18.58;;
76208;SDS011;64990;51.698;-0.292;2023-06-10T02:50:53;31.30;;;10.93;;
76208;SDS011;64990;51.698;-0.292;2023-06-10T02:53:20;37.38;;;13.55;;
76208;SDS011;64990;51.698;-0.292;2023-06-10T02:55:46;39.38;;;13.43;;
76208;SDS011;64990;51.698;-0.292;2023-06-10T02:58:12;50.13;;;15.35;;
76208;SDS011;64990;51.698;-0.292;2023-06-10T03:00:38;61.45;;;15.15;;
76208;SDS011;64990;51.698;-0.292;2023-06-10T03:03:06;40.28;;;14.32;;
76208;SDS011;64990;51.698;-0.292;2023-06-10T03:05:32;46.45;;;13.35;;
76208;SDS011;64990;51.698;-0.292;2023-06-10T03:07:58;35.88;;;13.52;;
76208;SDS011;64990;51.698;-0.292;2023-06-10T03:10:24;42.35;;;15.73;;
76208;SDS011;64990;51.698;-0.292;2023-06-10T03:12:50;41.17;;;13.23;;
76208;SDS011;64990;51.698;-0.292;2023-06-10T03:15:16;48.15;;;15.45;;
76208;SDS011;64990;51.698;-0.292;2023-06-10T03:17:42;40.33;;;13.38;;
76208;SDS011;64990;51.698;-0.292;2023-06-10T03:20:08;38.22;;;12.40;;
76208;SDS011;64990;51.698;-0.292;2023-06-10T03:22:35;43.63;;;12.68;;
76208;SDS011;64990;51.698;-0.292;2023-06-10T03:25:02;43.65;;;14.07;;
76208;SDS011;64990;51.698;-0.292;2023-06-10T03:27:29;38.47;;;15.90;;
76208;SDS011;64990;51.698;-0.292;2023-06-10T03:29:55;27.05;;;11.95;;
76208;SDS011;64990;51.698;-0.292;2023-06-10T03:32:21;52.63;;;15.20;;
76208;SDS011;64990;51.698;-0.292;2023-06-10T03:34:47;44.95;;;14.48;;
76208;SDS011;64990;51.698;-0.292;2023-06-10T03:37:13;36.83;;;13.75;;
76208;SDS011;64990;51.698;-0.292;2023-06-10T03:39:39;43.13;;;14.15;;
76208;SDS011;64990;51.698;-0.292;2023-06-10T03:42:06;46.15;;;15.50;;
76208;SDS011;64990;51.698;-0.292;2023-06-10T03:44:32;33.65;;;13.13;;
76208;SDS011;64990;51.698;-0.292;2023-06-10T03:46:58;37.80;;;13.98;;
76208;SDS011;64990;51.698;-0.292;2023-06-10T03:49:24;53.42;;;16.02;;
76208;SDS011;64990;51.698;-0.292;2023-06-10T03:51:53;42.50;;;12.70;;
76208;SDS011;64990;51.698;-0.292;2023-06-10T03:54:20;51.38;;;15.75;;
76208;SDS011;64990;51.698;-0.292;2023-06-10T03:56:46;47.90;;;16.08;;
76208;SDS011;64990;51.698;-0.292;2023-06-10T03:59:13;55.75;;;13.93;;
76208;SDS011;64990;51.698;-0.292;2023-06-10T04:01:39;59.08;;;18.00;;
76208;SDS011;64990;51.698;-0.292;2023-06-10T04:04:06;44.15;;;13.80;;
76208;SDS011;64990;51.698;-0.292;2023-06-10T04:06:32;49.55;;;15.52;;
76208;SDS011;64990;51.698;-0.292;2023-06-10T04:08:58;46.30;;;17.52;;
76208;SDS011;64990;51.698;-0.292;2023-06-10T04:11:24;49.35;;;16.17;;
76208;SDS011;64990;51.698;-0.292;2023-06-10T04:13:50;48.67;;;16.40;;
76208;SDS011;64990;51.698;-0.292;2023-06-10T04:16:16;55.72;;;18.98;;
76208;SDS011;64990;51.698;-0.292;2023-06-10T04:18:43;46.92;;;16.55;;
76208;SDS011;64990;51.698;-0.292;2023-06-10T04:21:09;52.30;;;15.00;;
76208;SDS011;64990;51.698;-0.292;2023-06-10T04:23:35;39.30;;;17.15;;
76208;SDS011;64990;51.698;-0.292;2023-06-10T04:26:04;32.05;;;14.88;;
76208;SDS011;64990;51.698;-0.292;2023-06-10T04:28:31;51.88;;;15.60;;
76208;SDS011;64990;51.698;-0.292;2023-06-10T04:30:57;43.65;;;13.65;;
76208;SDS011;64990;51.698;-0.292;2023-06-10T04:33:23;75.25;;;17.65;;
76208;SDS011;64990;51.698;-0.292;2023-06-10T04:35:49;44.35;;;14.55;;
76208;SDS011;64990;51.698;-0.292;2023-06-10T04:38:15;62.17;;;15.75;;
76208;SDS011;64990;51.698;-0.292;2023-06-10T04:40:41;47.60;;;15.02;;
76208;SDS011;64990;51.698;-0.292;2023-06-10T04:43:07;40.75;;;14.27;;
76208;SDS011;64990;51.698;-0.292;2023-06-10T04:45:33;57.58;;;17.15;;
76208;SDS011;64990;51.698;-0.292;2023-06-10T04:47:59;32.80;;;15.13;;
76208;SDS011;64990;51.698;-0.292;2023-06-10T04:50:25;38.78;;;14.88;;
76208;SDS011;64990;51.698;-0.292;2023-06-10T04:52:51;42.35;;;13.45;;
76208;SDS011;64990;51.698;-0.292;2023-06-10T04:55:17;40.58;;;14.88;;
76208;SDS011;64990;51.698;-0.292;2023-06-10T04:57:43;46.28;;;15.25;;
76208;SDS011;64990;51.698;-0.292;2023-06-10T05:00:09;33.75;;;13.70;;
76208;SDS011;64990;51.698;-0.292;2023-06-10T05:02:36;30.30;;;11.93;;
76208;SDS011;64990;51.698;-0.292;2023-06-10T05:05:02;51.63;;;16.65;;
76208;SDS011;64990;51.698;-0.292;2023-06-10T05:07:28;45.97;;;14.48;;
76208;SDS011;64990;51.698;-0.292;2023-06-10T05:09:54;51.38;;;15.77;;
76208;SDS011;64990;51.698;-0.292;2023-06-10T05:12:20;45.03;;;15.20;;
76208;SDS011;64990;51.698;-0.292;2023-06-10T05:14:46;41.30;;;13.85;;
76208;SDS011;64990;51.698;-0.292;2023-06-10T05:17:12;47.25;;;14.55;;
76208;SDS011;64990;51.698;-0.292;2023-06-10T05:19:41;32.03;;;14.02;;
76208;SDS011;64990;51.698;-0.292;2023-06-10T05:22:08;38.80;;;13.68;;
76208;SDS011;64990;51.698;-0.292;2023-06-10T05:24:34;39.28;;;13.55;;
76208;SDS011;64990;51.698;-0.292;2023-06-10T05:27:00;42.75;;;12.90;;
76208;SDS011;64990;51.698;-0.292;2023-06-10T05:29:27;39.58;;;14.65;;
76208;SDS011;64990;51.698;-0.292;2023-06-10T05:31:53;35.08;;;12.30;;
76208;SDS011;64990;51.698;-0.292;2023-06-10T05:34:22;44.85;;;13.13;;
76208;SDS011;64990;51.698;-0.292;2023-06-10T05:36:47;37.20;;;13.68;;
76208;SDS011;64990;51.698;-0.292;2023-06-10T05:39:13;32.80;;;13.13;;
76208;SDS011;64990;51.698;-0.292;2023-06-10T05:41:39;30.60;;;12.45;;
76208;SDS011;64990;51.698;-0.292;2023-06-10T05:44:05;35.90;;;13.27;;
76208;SDS011;64990;51.698;-0.292;2023-06-10T05:46:31;46.13;;;14.05;;
76208;SDS011;64990;51.698;-0.292;2023-06-10T05:48:58;31.25;;;11.98;;
76208;SDS011;64990;51.698;-0.292;2023-06-10T05:51:24;34.83;;;13.93;;
76208;SDS011;64990;51.698;-0.292;2023-06-10T05:53:50;31.73;;;12.93;;
76208;SDS011;64990;51.698;-0.292;2023-06-10T05:56:16;34.78;;;12.50;;
76208;SDS011;64990;51.698;-0.292;2023-06-10T05:58:42;47.80;;;12.70;;
76208;SDS011;64990;51.698;-0.292;2023-06-10T06:01:08;30.38;;;12.00;;
76208;SDS011;64990;51.698;-0.292;2023-06-10T06:03:34;33.25;;;11.00;;
76208;SDS011;64990;51.698;-0.292;2023-06-10T06:06:00;28.27;;;11.98;;
76208;SDS011;64990;51.698;-0.292;2023-06-10T06:08:26;30.80;;;14.13;;
76208;SDS011;64990;51.698;-0.292;2023-06-10T06:10:52;40.13;;;10.85;;
76208;SDS011;64990;51.698;-0.292;2023-06-10T06:13:18;34.78;;;11.43;;
76208;SDS011;64990;51.698;-0.292;2023-06-10T06:15:44;35.15;;;13.32;;
76208;SDS011;64990;51.698;-0.292;2023-06-10T06:18:10;28.15;;;11.65;;
76208;SDS011;64990;51.698;-0.292;2023-06-10T06:20:36;24.77;;;11.00;;
76208;SDS011;64990;51.698;-0.292;2023-06-10T06:23:02;36.58;;;11.35;;
76208;SDS011;64990;51.698;-0.292;2023-06-10T06:25:28;31.77;;;10.75;;
76208;SDS011;64990;51.698;-0.292;2023-06-10T06:27:54;32.17;;;11.23;;
76208;SDS011;64990;51.698;-0.292;2023-06-10T06:30:20;27.33;;;11.77;;
76208;SDS011;64990;51.698;-0.292;2023-06-10T06:32:46;40.78;;;12.43;;
76208;SDS011;64990;51.698;-0.292;2023-06-10T06:35:12;25.15;;;11.32;;
76208;SDS011;64990;51.698;-0.292;2023-06-10T06:37:38;28.08;;;10.10;;
76208;SDS011;64990;51.698;-0.292;2023-06-10T06:40:05;36.67;;;11.15;;
76208;SDS011;64990;51.698;-0.292;2023-06-10T06:42:31;26.92;;;12.02;;
76208;SDS011;64990;51.698;-0.292;2023-06-10T06:44:57;21.65;;;10.10;;
76208;SDS011;64990;51.698;-0.292;2023-06-10T06:47:24;21.73;;;10.55;;
76208;SDS011;64990;51.698;-0.292;2023-06-10T06:49:51;34.20;;;11.25;;
76208;SDS011;64990;51.698;-0.292;2023-06-10T06:52:17;41.08;;;13.57;;
76208;SDS011;64990;51.698;-0.292;2023-06-10T06:54:44;25.02;;;10.70;;
76208;SDS011;64990;51.698;-0.292;2023-06-10T06:57:10;32.38;;;10.50;;
76208;SDS011;64990;51.698;-0.292;2023-06-10T06:59:36;31.80;;;11.05;;
76208;SDS011;64990;51.698;-0.292;2023-06-10T07:02:02;30.08;;;8.93;;
76208;SDS011;64990;51.698;-0.292;2023-06-10T07:04:29;24.67;;;9.07;;
76208;SDS011;64990;51.698;-0.292;2023-06-10T07:06:55;35.00;;;12.77;;
76208;SDS011;64990;51.698;-0.292;2023-06-10T07:09:21;29.13;;;10.98;;
76208;SDS011;64990;51.698;-0.292;2023-06-10T07:11:47;36.17;;;12.75;;
76208;SDS011;64990;51.698;-0.292;2023-06-10T07:14:13;43.53;;;11.35;;
76208;SDS011;64990;51.698;-0.292;2023-06-10T07:16:39;27.00;;;11.73;;
76208;SDS011;64990;51.698;-0.292;2023-06-10T07:19:05;35.38;;;10.27;;
76208;SDS011;64990;51.698;-0.292;2023-06-10T07:21:31;49.15;;;13.23;;
76208;SDS011;64990;51.698;-0.292;2023-06-10T07:23:58;47.63;;;13.65;;
76208;SDS011;64990;51.698;-0.292;2023-06-10T07:26:24;22.27;;;10.02;;
76208;SDS011;64990;51.698;-0.292;2023-06-10T07:28:51;25.20;;;11.30;;
76208;SDS011;64990;51.698;-0.292;2023-06-10T07:31:17;27.27;;;11.98;;
76208;SDS011;64990;51.698;-0.292;2023-06-10T07:33:43;27.27;;;11.32;;
76208;SDS011;64990;51.698;-0.292;2023-06-10T07:36:09;33.88;;;11.73;;
76208;SDS011;64990;51.698;-0.292;2023-06-10T07:38:35;25.40;;;10.57;;
76208;SDS011;64990;51.698;-0.292;2023-06-10T07:41:01;35.58;;;12.63;;
76208;SDS011;64990;51.698;-0.292;2023-06-10T07:43:27;24.48;;;10.85;;
76208;SDS011;64990;51.698;-0.292;2023-06-10T07:45:53;37.88;;;11.80;;
76208;SDS011;64990;51.698;-0.292;2023-06-10T07:48:19;27.42;;;11.77;;
76208;SDS011;64990;51.698;-0.292;2023-06-10T07:50:45;34.67;;;10.40;;
76208;SDS011;64990;51.698;-0.292;2023-06-10T07:53:11;25.02;;;10.65;;
76208;SDS011;64990;51.698;-0.292;2023-06-10T07:55:37;27.38;;;11.23;;
76208;SDS011;64990;51.698;-0.292;2023-06-10T07:58:03;22.30;;;11.10;;
76208;SDS011;64990;51.698;-0.292;2023-06-10T08:00:29;25.58;;;9.65;;
76208;SDS011;64990;51.698;-0.292;2023-06-10T08:02:55;24.80;;;9.75;;
76208;SDS011;64990;51.698;-0.292;2023-06-10T08:05:21;37.28;;;11.13;;
76208;SDS011;64990;51.698;-0.292;2023-06-10T08:07:47;24.83;;;10.32;;
76208;SDS011;64990;51.698;-0.292;2023-06-10T08:10:13;20.67;;;10.35;;
76208;SDS011;64990;51.698;-0.292;2023-06-10T08:12:39;21.33;;;10.73;;
76208;SDS011;64990;51.698;-0.292;2023-06-10T08:15:06;30.67;;;11.60;;
76208;SDS011;64990;51.698;-0.292;2023-06-10T08:17:32;29.38;;;10.65;;
76208;SDS011;64990;51.698;-0.292;2023-06-10T08:19:58;27.25;;;9.55;;
76208;SDS011;64990;51.698;-0.292;2023-06-10T08:22:24;14.95;;;9.77;;
76208;SDS011;64990;51.698;-0.292;2023-06-10T08:24:50;26.38;;;10.27;;
76208;SDS011;64990;51.698;-0.292;2023-06-10T08:27:16;34.53;;;11.32;;
76208;SDS011;64990;51.698;-0.292;2023-06-10T08:29:42;19.90;;;11.40;;
76208;SDS011;64990;51.698;-0.292;2023-06-10T08:32:08;20.60;;;8.82;;
76208;SDS011;64990;51.698;-0.292;2023-06-10T08:34:34;24.20;;;10.48;;
76208;SDS011;64990;51.698;-0.292;2023-06-10T08:37:01;26.05;;;8.93;;
76208;SDS011;64990;51.698;-0.292;2023-06-10T08:39:27;21.35;;;9.55;;
76208;SDS011;64990;51.698;-0.292;2023-06-10T08:44:41;29.30;;;10.98;;
76208;SDS011;64990;51.698;-0.292;2023-06-10T08:47:16;18.83;;;8.88;;
76208;SDS011;64990;51.698;-0.292;2023-06-10T08:52:08;21.90;;;8.75;;
76208;SDS011;64990;51.698;-0.292;2023-06-10T08:54:37;27.08;;;11.23;;
76208;SDS011;64990;51.698;-0.292;2023-06-10T08:57:05;17.25;;;9.95;;
76208;SDS011;64990;51.698;-0.292;2023-06-10T08:59:31;18.98;;;9.57;;
76208;SDS011;64990;51.698;-0.292;2023-06-10T09:01:58;23.08;;;9.52;;
76208;SDS011;64990;51.698;-0.292;2023-06-10T09:04:24;47.58;;;11.18;;
76208;SDS011;64990;51.698;-0.292;2023-06-10T09:06:50;45.50;;;12.93;;
76208;SDS011;64990;51.698;-0.292;2023-06-10T09:09:16;55.70;;;14.18;;
76208;SDS011;64990;51.698;-0.292;2023-06-10T09:11:45;22.17;;;10.90;;
76208;SDS011;64990;51.698;-0.292;2023-06-10T09:14:11;59.05;;;12.13;;
76208;SDS011;64990;51.698;-0.292;2023-06-10T09:16:38;15.80;;;8.88;;
76208;SDS011;64990;51.698;-0.292;2023-06-10T09:19:04;19.60;;;8.98;;
76208;SDS011;64990;51.698;-0.292;2023-06-10T09:21:33;18.23;;;9.23;;
76208;SDS011;64990;51.698;-0.292;2023-06-10T09:24:00;20.25;;;9.65;;
76208;SDS011;64990;51.698;-0.292;2023-06-10T09:26:29;16.05;;;8.30;;
76208;SDS011;64990;51.698;-0.292;2023-06-10T09:29:05;35.47;;;9.30;;
76208;SDS011;64990;51.698;-0.292;2023-06-10T09:31:34;22.00;;;9.60;;
76208;SDS011;64990;51.698;-0.292;2023-06-10T09:36:36;19.00;;;7.88;;
76208;SDS011;64990;51.698;-0.292;2023-06-10T09:39:02;14.13;;;9.90;;
76208;SDS011;64990;51.698;-0.292;2023-06-10T09:41:32;16.75;;;9.05;;
76208;SDS011;64990;51.698;-0.292;2023-06-10T09:43:59;21.67;;;8.82;;
76208;SDS011;64990;51.698;-0.292;2023-06-10T09:46:25;18.35;;;7.88;;
76208;SDS011;64990;51.698;-0.292;2023-06-10T09:48:57;23.05;;;9.02;;
76208;SDS011;64990;51.698;-0.292;2023-06-10T09:51:23;16.23;;;7.38;;
76208;SDS011;64990;51.698;-0.292;2023-06-10T09:53:52;19.58;;;8.07;;
76208;SDS011;64990;51.698;-0.292;2023-06-10T09:56:19;14.95;;;8.43;;
76208;SDS011;64990;51.698;-0.292;2023-06-10T09:58:46;17.20;;;9.73;;
76208;SDS011;64990;51.698;-0.292;2023-06-10T10:01:12;21.55;;;9.07;;
76208;SDS011;64990;51.698;-0.292;2023-06-10T10:03:51;13.23;;;7.72;;
76208;SDS011;64990;51.698;-0.292;2023-06-10T10:06:18;13.27;;;8.48;;
76208;SDS011;64990;51.698;-0.292;2023-06-10T10:08:45;15.32;;;8.27;;
76208;SDS011;64990;51.698;-0.292;2023-06-10T10:11:11;15.25;;;7.70;;
76208;SDS011;64990;51.698;-0.292;2023-06-10T10:13:37;22.35;;;9.43;;
76208;SDS011;64990;51.698;-0.292;2023-06-10T10:16:09;14.65;;;8.13;;
76208;SDS011;64990;51.698;-0.292;2023-06-10T10:18:39;15.25;;;8.70;;
76208;SDS011;64990;51.698;-0.292;2023-06-10T10:21:11;11.52;;;7.18;;
76208;SDS011;64990;51.698;-0.292;2023-06-10T10:23:39;18.45;;;8.70;;
76208;SDS011;64990;51.698;-0.292;2023-06-10T10:26:07;14.85;;;8.50;;
76208;SDS011;64990;51.698;-0.292;2023-06-10T10:28:41;11.70;;;7.38;;
76208;SDS011;64990;51.698;-0.292;2023-06-10T10:31:08;10.57;;;6.30;;
76208;SDS011;64990;51.698;-0.292;2023-06-10T10:33:42;21.83;;;6.80;;
76208;SDS011;64990;51.698;-0.292;2023-06-10T10:36:11;11.50;;;7.57;;
76208;SDS011;64990;51.698;-0.292;2023-06-10T10:38:37;10.15;;;6.40;;
76208;SDS011;64990;51.698;-0.292;2023-06-10T10:41:04;18.83;;;7.28;;
76208;SDS011;64990;51.698;-0.292;2023-06-10T10:43:31;14.98;;;7.15;;
76208;SDS011;64990;51.698;-0.292;2023-06-10T10:45:59;11.40;;;7.47;;
76208;SDS011;64990;51.698;-0.292;2023-06-10T10:48:25;15.25;;;7.05;;
76208;SDS011;64990;51.698;-0.292;2023-06-10T10:50:57;8.30;;;6.15;;
76208;SDS011;64990;51.698;-0.292;2023-06-10T10:53:24;16.20;;;7.63;;
76208;SDS011;64990;51.698;-0.292;2023-06-10T10:55:59;14.68;;;6.75;;
76208;SDS011;64990;51.698;-0.292;2023-06-10T10:58:26;12.07;;;6.50;;
76208;SDS011;64990;51.698;-0.292;2023-06-10T11:00:52;11.07;;;5.53;;
76208;SDS011;64990;51.698;-0.292;2023-06-10T11:03:18;9.50;;;6.28;;
76208;SDS011;64990;51.698;-0.292;2023-06-10T11:05:48;9.60;;;5.47;;
76208;SDS011;64990;51.698;-0.292;2023-06-10T11:08:59;14.18;;;5.82;;
76208;SDS011;64990;51.698;-0.292;2023-06-10T11:11:01;12.00;;;6.10;;
76208;SDS011;64990;51.698;-0.292;2023-06-10T11:13:42;14.00;;;4.93;;
76208;SDS011;64990;51.698;-0.292;2023-06-10T11:16:23;9.73;;;5.45;;
76208;SDS011;64990;51.698;-0.292;2023-06-10T11:18:53;10.73;;;7.18;;
76208;SDS011;64990;51.698;-0.292;2023-06-10T11:21:19;8.65;;;5.70;;
76208;SDS011;64990;51.698;-0.292;2023-06-10T11:23:45;6.80;;;4.85;;
76208;SDS011;64990;51.698;-0.292;2023-06-10T11:31:26;7.13;;;5.28;;
76208;SDS011;64990;51.698;-0.292;2023-06-10T11:33:55;10.77;;;5.32;;
76208;SDS011;64990;51.698;-0.292;2023-06-10T11:36:22;5.32;;;4.25;;
76208;SDS011;64990;51.698;-0.292;2023-06-10T11:38:48;7.65;;;4.85;;
76208;SDS011;64990;51.698;-0.292;2023-06-10T11:41:14;6.63;;;4.97;;
76208;SDS011;64990;51.698;-0.292;2023-06-10T11:43:42;6.68;;;5.20;;
76208;SDS011;64990;51.698;-0.292;2023-06-10T11:46:09;6.30;;;5.10;;
76208;SDS011;64990;51.698;-0.292;2023-06-10T11:48:35;6.28;;;4.20;;
76208;SDS011;64990;51.698;-0.292;2023-06-10T11:51:05;5.57;;;4.88;;
76208;SDS011;64990;51.698;-0.292;2023-06-10T11:53:31;8.15;;;4.40;;
76208;SDS011;64990;51.698;-0.292;2023-06-10T11:55:57;13.60;;;3.45;;
76208;SDS011;64990;51.698;-0.292;2023-06-10T11:58:23;15.80;;;4.25;;
76208;SDS011;64990;51.698;-0.292;2023-06-10T12:00:50;5.75;;;4.20;;
76208;SDS011;64990;51.698;-0.292;2023-06-10T12:03:18;11.38;;;4.82;;
76208;SDS011;64990;51.698;-0.292;2023-06-10T12:08:43;9.38;;;3.42;;
76208;SDS011;64990;51.698;-0.292;2023-06-10T12:11:09;5.72;;;3.95;;
76208;SDS011;64990;51.698;-0.292;2023-06-10T12:13:36;12.45;;;4.10;;
76208;SDS011;64990;51.698;-0.292;2023-06-10T12:16:06;7.47;;;3.85;;
76208;SDS011;64990;51.698;-0.292;2023-06-10T12:18:32;5.70;;;3.47;;
76208;SDS011;64990;51.698;-0.292;2023-06-10T12:20:58;5.28;;;3.70;;
76208;SDS011;64990;51.698;-0.292;2023-06-10T12:23:25;12.70;;;5.30;;
76208;SDS011;64990;51.698;-0.292;2023-06-10T12:25:54;6.82;;;3.80;;
76208;SDS011;64990;51.698;-0.292;2023-06-10T12:28:25;4.25;;;3.85;;
76208;SDS011;64990;51.698;-0.292;2023-06-10T12:30:51;5.40;;;4.40;;
76208;SDS011;64990;51.698;-0.292;2023-06-10T12:33:20;15.52;;;5.03;;
76208;SDS011;64990;51.698;-0.292;2023-06-10T12:35:50;7.20;;;4.00;;
76208;SDS011;64990;51.698;-0.292;2023-06-10T12:38:23;15.27;;;5.65;;
76208;SDS011;64990;51.698;-0.292;2023-06-10T12:40:49;5.18;;;3.83;;
76208;SDS011;64990;51.698;-0.292;2023-06-10T12:43:24;11.73;;;4.55;;
76208;SDS011;64990;51.698;-0.292;2023-06-10T12:45:50;11.23;;;5.40;;
76208;SDS011;64990;51.698;-0.292;2023-06-10T12:50:43;7.45;;;3.72;;
76208;SDS011;64990;51.698;-0.292;2023-06-10T12:53:09;6.47;;;4.28;;
76208;SDS011;64990;51.698;-0.292;2023-06-10T12:55:38;9.50;;;4.10;;
76208;SDS011;64990;51.698;-0.292;2023-06-10T12:58:04;9.40;;;4.07;;
76208;SDS011;64990;51.698;-0.292;2023-06-10T13:00:31;8.10;;;4.53;;
76208;SDS011;64990;51.698;-0.292;2023-06-10T13:03:00;11.25;;;4.32;;
76208;SDS011;64990;51.698;-0.292;2023-06-10T13:05:27;9.35;;;3.53;;
76208;SDS011;64990;51.698;-0.292;2023-06-10T13:07:53;7.07;;;3.58;;
76208;SDS011;64990;51.698;-0.292;2023-06-10T13:10:20;10.98;;;4.88;;
76208;SDS011;64990;51.698;-0.292;2023-06-10T13:12:46;8.43;;;3.97;;
76208;SDS011;64990;51.698;-0.292;2023-06-10T13:15:12;18.02;;;4.53;;
76208;SDS011;64990;51.698;-0.292;2023-06-10T13:17:39;7.32;;;4.30;;
76208;SDS011;64990;51.698;-0.292;2023-06-10T13:20:06;7.80;;;3.78;;
76208;SDS011;64990;51.698;-0.292;2023-06-10T13:22:33;9.20;;;4.20;;
76208;SDS011;64990;51.698;-0.292;2023-06-10T13:25:00;8.10;;;4.45;;
76208;SDS011;64990;51.698;-0.292;2023-06-10T13:27:26;4.72;;;3.42;;
76208;SDS011;64990;51.698;-0.292;2023-06-10T13:29:52;6.43;;;4.38;;
76208;SDS011;64990;51.698;-0.292;2023-06-10T13:32:19;17.50;;;4.82;;
76208;SDS011;64990;51.698;-0.292;2023-06-10T13:34:45;9.10;;;3.90;;
76208;SDS011;64990;51.698;-0.292;2023-06-10T13:37:11;8.10;;;3.72;;
76208;SDS011;64990;51.698;-0.292;2023-06-10T13:39:38;5.22;;;3.65;;
76208;SDS011;64990;51.698;-0.292;2023-06-10T13:42:04;13.68;;;4.30;;
76208;SDS011;64990;51.698;-0.292;2023-06-10T13:44:32;6.03;;;4.18;;
76208;SDS011;64990;51.698;-0.292;2023-06-10T13:47:01;5.55;;;3.58;;
76208;SDS011;64990;51.698;-0.292;2023-06-10T13:49:27;8.68;;;3.85;;
76208;SDS011;64990;51.698;-0.292;2023-06-10T13:51:53;7.70;;;3.90;;
76208;SDS011;64990;51.698;-0.292;2023-06-10T13:54:19;15.10;;;3.33;;
76208;SDS011;64990;51.698;-0.292;2023-06-10T13:56:46;6.25;;;3.13;;
76208;SDS011;64990;51.698;-0.292;2023-06-10T13:59:12;8.50;;;4.28;;
76208;SDS011;64990;51.698;-0.292;2023-06-10T14:01:38;7.10;;;3.30;;
76208;SDS011;64990;51.698;-0.292;2023-06-10T14:04:05;4.20;;;3.80;;
76208;SDS011;64990;51.698;-0.292;2023-06-10T14:06:31;7.53;;;3.40;;
76208;SDS011;64990;51.698;-0.292;2023-06-10T14:08:58;5.18;;;3.97;;
76208;SDS011;64990;51.698;-0.292;2023-06-10T14:11:24;10.15;;;4.22;;
76208;SDS011;64990;51.698;-0.292;2023-06-10T14:13:50;13.27;;;4.35;;
76208;SDS011;64990;51.698;-0.292;2023-06-10T14:16:16;5.05;;;3.80;;
76208;SDS011;64990;51.698;-0.292;2023-06-10T14:18:42;9.50;;;3.72;;
76208;SDS011;64990;51.698;-0.292;2023-06-10T14:21:08;5.97;;;3.70;;
76208;SDS011;64990;51.698;-0.292;2023-06-10T14:23:34;7.15;;;3.90;;
76208;SDS011;64990;51.698;-0.292;2023-06-10T14:26:00;4.50;;;3.85;;
76208;SDS011;64990;51.698;-0.292;2023-06-10T14:28:28;9.43;;;3.90;;
76208;SDS011;64990;51.698;-0.292;2023-06-10T14:30:54;5.70;;;3.70;;
76208;SDS011;64990;51.698;-0.292;2023-06-10T14:33:20;10.68;;;4.10;;
76208;SDS011;64990;51.698;-0.292;2023-06-10T14:35:46;7.57;;;4.70;;
76208;SDS011;64990;51.698;-0.292;2023-06-10T14:38:12;6.63;;;4.32;;